Аэропорт: Ленкорань. Ленкорань

ICAO: UBBL

METAR:
2019/05/26 14:00
UBBL 261400Z 31005KT 9999 -TSRA SCT040CB BKN100 21/19 Q1012 R33/CLRD// NOSIG RMK MT OP
METAR:
2019/05/26 12:00
TAF UBBL 261103Z 2612/2712 05006KT 9999 SCT040CB BKN100 TX28/2612Z TN18/2702Z 
      TEMPO 2612/2620 VRB12KT -TSRA FEW012 
      TEMPO 2620/2703 6000 
      BECMG 2703/2705 12008KT